createdAt,value
2022-10-26T00:00:34.803Z,23.71
2022-10-26T00:03:02.824Z,23.70
2022-10-26T00:05:33.404Z,23.70
2022-10-26T00:08:01.428Z,23.70
2022-10-26T00:10:31.560Z,23.69
2022-10-26T00:12:59.922Z,23.68
2022-10-26T00:15:27.870Z,23.69
2022-10-26T00:17:55.911Z,23.68
2022-10-26T00:20:23.793Z,23.68
2022-10-26T00:22:56.358Z,23.67
2022-10-26T00:25:24.391Z,23.67
2022-10-26T00:27:52.425Z,23.65
2022-10-26T00:30:20.363Z,23.63
2022-10-26T00:32:48.321Z,23.64
2022-10-26T00:35:22.922Z,23.64
2022-10-26T00:37:56.951Z,23.63
2022-10-26T00:40:29.355Z,23.61
2022-10-26T00:42:57.319Z,23.60
2022-10-26T00:45:26.313Z,23.60
2022-10-26T00:47:55.043Z,23.60
2022-10-26T00:50:24.812Z,23.58
2022-10-26T00:52:52.968Z,23.59
2022-10-26T00:55:24.032Z,23.57
2022-10-26T00:57:51.997Z,23.58
2022-10-26T01:00:19.960Z,23.57
2022-10-26T01:02:48.392Z,23.57
2022-10-26T01:05:16.865Z,23.57
2022-10-26T01:07:45.052Z,23.56
2022-10-26T01:10:13.983Z,23.56
2022-10-26T01:12:43.282Z,23.55
2022-10-26T01:15:11.437Z,23.55
2022-10-26T01:17:55.159Z,23.55
2022-10-26T01:20:43.478Z,23.53
2022-10-26T01:23:14.763Z,23.54
2022-10-26T01:26:19.836Z,23.52
2022-10-26T01:28:59.734Z,23.51
2022-10-26T01:31:29.771Z,23.51
2022-10-26T01:33:58.425Z,23.50
2022-10-26T01:36:29.345Z,23.49
2022-10-26T01:38:59.104Z,23.48
2022-10-26T01:41:28.786Z,23.48
2022-10-26T01:43:57.983Z,23.47
2022-10-26T01:46:26.523Z,23.48
2022-10-26T01:49:00.203Z,23.46
2022-10-26T01:51:28.791Z,23.46
2022-10-26T01:53:56.784Z,23.45
2022-10-26T01:56:25.147Z,23.45
2022-10-26T01:59:13.401Z,23.45
2022-10-26T02:02:19.856Z,23.44
2022-10-26T02:04:56.459Z,23.43
2022-10-26T02:07:26.943Z,23.43
2022-10-26T02:09:58.278Z,23.42
2022-10-26T02:12:31.747Z,23.42
2022-10-26T02:15:02.165Z,23.42
2022-10-26T02:17:30.921Z,23.42
2022-10-26T02:20:01.595Z,23.41
2022-10-26T02:22:31.025Z,23.40
2022-10-26T02:24:58.998Z,23.40
2022-10-26T02:27:27.996Z,23.40
2022-10-26T02:29:56.213Z,23.39
2022-10-26T02:32:24.486Z,23.39
2022-10-26T02:34:52.546Z,23.37
2022-10-26T02:37:21.884Z,23.37
2022-10-26T02:39:50.741Z,23.36
2022-10-26T02:42:18.682Z,23.35
2022-10-26T02:44:49.082Z,23.34
2022-10-26T02:47:17.179Z,23.34
2022-10-26T02:49:45.170Z,23.33
2022-10-26T02:52:14.644Z,23.33
2022-10-26T02:54:49.839Z,23.33
2022-10-26T02:57:18.353Z,23.32
2022-10-26T02:59:47.697Z,23.30
2022-10-26T03:02:15.907Z,23.31
2022-10-26T03:04:43.888Z,23.31
2022-10-26T03:07:11.860Z,23.31
2022-10-26T03:09:39.822Z,23.31
2022-10-26T03:12:09.213Z,23.31
2022-10-26T03:14:37.168Z,23.30
2022-10-26T03:17:05.103Z,23.31
2022-10-26T03:19:33.066Z,23.30
2022-10-26T03:22:00.994Z,23.31
2022-10-26T03:24:28.995Z,23.31
2022-10-26T03:26:59.608Z,23.29
2022-10-26T03:29:31.397Z,23.29
2022-10-26T03:31:59.341Z,23.29
2022-10-26T03:34:27.288Z,23.27
2022-10-26T03:36:55.310Z,23.27
2022-10-26T03:39:23.297Z,23.26
2022-10-26T03:41:51.272Z,23.26
2022-10-26T03:44:19.325Z,23.25
2022-10-26T03:46:48.666Z,23.24
2022-10-26T03:49:16.607Z,23.25
2022-10-26T03:51:44.588Z,23.24
2022-10-26T03:54:12.581Z,23.23
2022-10-26T03:56:40.536Z,23.22
2022-10-26T03:59:08.449Z,23.23
2022-10-26T04:01:36.516Z,23.23
2022-10-26T04:04:06.138Z,23.23
2022-10-26T04:06:34.206Z,23.23
2022-10-26T04:09:02.635Z,23.24
2022-10-26T04:11:30.513Z,23.24
2022-10-26T04:13:59.678Z,23.24
2022-10-26T04:16:31.075Z,23.24
2022-10-26T04:19:01.361Z,23.25
2022-10-26T04:21:32.901Z,23.24
2022-10-26T04:24:00.864Z,23.24
2022-10-26T04:26:28.812Z,23.24
2022-10-26T04:28:56.738Z,23.23
2022-10-26T04:31:24.708Z,23.23
2022-10-26T04:33:52.673Z,23.22
2022-10-26T04:36:20.629Z,23.22
2022-10-26T04:38:51.179Z,23.22
2022-10-26T04:41:19.116Z,23.22
2022-10-26T04:43:47.092Z,23.21
2022-10-26T04:46:16.788Z,23.22
2022-10-26T04:48:44.890Z,23.20
2022-10-26T04:51:13.128Z,23.20
2022-10-26T04:53:41.093Z,23.20
2022-10-26T04:56:10.391Z,23.20
2022-10-26T04:58:38.523Z,23.19
2022-10-26T05:01:06.774Z,23.19
2022-10-26T05:03:34.780Z,23.18
2022-10-26T05:06:02.935Z,23.19
2022-10-26T05:08:30.929Z,23.17
2022-10-26T05:10:58.901Z,23.17
2022-10-26T05:13:28.286Z,23.19
2022-10-26T05:15:56.234Z,23.18
2022-10-26T05:18:24.191Z,23.18
2022-10-26T05:20:53.928Z,23.18
2022-10-26T05:23:22.136Z,23.18
2022-10-26T05:25:50.241Z,23.18
2022-10-26T05:28:18.891Z,23.18
2022-10-26T05:30:48.355Z,23.18
2022-10-26T05:33:16.272Z,23.17
2022-10-26T05:35:44.236Z,23.17
2022-10-26T05:38:14.051Z,23.16
2022-10-26T05:40:48.182Z,23.17
2022-10-26T05:43:16.098Z,23.18
2022-10-26T05:45:44.108Z,23.17
2022-10-26T05:48:13.829Z,23.17
2022-10-26T05:50:41.765Z,23.17
2022-10-26T05:53:09.675Z,23.18
2022-10-26T05:55:38.420Z,23.18
2022-10-26T05:58:10.567Z,23.20
2022-10-26T06:00:38.847Z,23.20
2022-10-26T06:03:10.156Z,23.20
2022-10-26T06:05:42.760Z,23.21
2022-10-26T06:08:11.695Z,23.22
2022-10-26T06:10:40.552Z,23.20
2022-10-26T06:13:09.054Z,23.22
2022-10-26T06:15:39.408Z,23.24
2022-10-26T06:18:10.860Z,23.24
2022-10-26T06:20:46.599Z,23.26
2022-10-26T06:23:24.759Z,23.29
2022-10-26T06:25:56.076Z,23.30
2022-10-26T06:28:29.376Z,23.31
2022-10-26T06:30:57.559Z,23.30
2022-10-26T06:33:29.455Z,23.33
2022-10-26T06:36:03.413Z,23.34
2022-10-26T06:38:31.444Z,23.35
2022-10-26T06:40:59.659Z,23.36
2022-10-26T06:43:28.748Z,23.39
2022-10-26T06:46:01.317Z,23.41
2022-10-26T06:48:29.747Z,23.42
2022-10-26T06:50:59.633Z,23.44
2022-10-26T06:53:30.726Z,23.46
2022-10-26T06:55:59.180Z,23.46
2022-10-26T06:58:29.452Z,23.51
2022-10-26T07:00:57.866Z,23.53
2022-10-26T07:03:25.931Z,23.56
2022-10-26T07:05:53.864Z,23.58
2022-10-26T07:08:23.306Z,23.62
2022-10-26T07:10:51.342Z,23.64
2022-10-26T07:13:19.342Z,23.66
2022-10-26T07:15:48.103Z,23.68
2022-10-26T07:18:16.124Z,23.72
2022-10-26T07:20:44.253Z,23.76
2022-10-26T07:23:12.204Z,23.78
2022-10-26T07:25:41.768Z,23.80
2022-10-26T07:28:10.503Z,23.82
2022-10-26T07:30:39.631Z,23.84
2022-10-26T07:33:08.740Z,23.86
2022-10-26T07:35:37.032Z,23.88
2022-10-26T07:38:05.077Z,23.90
2022-10-26T07:40:33.175Z,23.94
2022-10-26T07:43:02.667Z,23.95
2022-10-26T07:45:30.811Z,23.94
2022-10-26T07:47:58.853Z,23.91
2022-10-26T07:50:26.903Z,23.96
2022-10-26T07:52:54.902Z,24.00
2022-10-26T07:55:23.011Z,24.03
2022-10-26T07:57:54.564Z,24.05
2022-10-26T08:00:24.769Z,24.08
2022-10-26T08:02:52.762Z,24.13
2022-10-26T08:05:20.772Z,24.16
2022-10-26T08:07:49.210Z,24.18
2022-10-26T08:10:17.645Z,24.20
2022-10-26T08:12:45.564Z,24.23
2022-10-26T08:15:13.896Z,24.25
2022-10-26T08:17:43.223Z,24.29
2022-10-26T08:20:12.342Z,24.32
2022-10-26T08:22:40.313Z,24.31
2022-10-26T08:25:08.973Z,24.34
2022-10-26T08:27:36.916Z,24.35
2022-10-26T08:30:06.068Z,24.39
2022-10-26T08:32:34.000Z,24.39
2022-10-26T08:35:03.339Z,24.41
2022-10-26T08:37:31.328Z,24.44
2022-10-26T08:40:00.731Z,24.46
2022-10-26T08:42:33.062Z,24.46
2022-10-26T08:45:03.022Z,24.47
2022-10-26T08:47:32.082Z,24.48
2022-10-26T08:50:01.004Z,24.52
2022-10-26T08:52:31.975Z,24.53
2022-10-26T08:54:59.943Z,24.56
2022-10-26T08:57:28.861Z,24.60
2022-10-26T09:00:01.784Z,24.64
2022-10-26T09:02:29.846Z,24.68
2022-10-26T09:04:59.395Z,24.70
2022-10-26T09:07:49.346Z,24.73
2022-10-26T09:10:25.767Z,24.75
2022-10-26T09:12:56.049Z,24.79
2022-10-26T09:15:27.964Z,24.82
2022-10-26T09:17:59.650Z,24.84
2022-10-26T09:20:43.824Z,24.86
2022-10-26T09:23:19.684Z,24.88
2022-10-26T09:25:49.230Z,24.88
2022-10-26T09:28:18.374Z,24.88
2022-10-26T09:30:46.592Z,24.91
2022-10-26T09:33:16.846Z,24.92
2022-10-26T09:35:49.889Z,24.94
2022-10-26T09:38:22.767Z,24.96
2022-10-26T09:40:54.265Z,24.99
2022-10-26T09:43:24.701Z,25.03
2022-10-26T09:45:53.020Z,25.06
2022-10-26T09:48:23.264Z,25.08
2022-10-26T09:50:52.711Z,25.10
2022-10-26T09:53:22.779Z,25.11
2022-10-26T09:55:52.455Z,25.13
2022-10-26T09:58:22.323Z,25.15
2022-10-26T10:00:52.176Z,25.17
2022-10-26T10:03:21.098Z,25.20
2022-10-26T10:05:52.207Z,25.22
2022-10-26T10:08:23.572Z,25.23
2022-10-26T10:11:09.914Z,25.26
2022-10-26T10:13:39.989Z,25.28
2022-10-26T10:16:09.945Z,25.29
2022-10-26T10:18:39.175Z,25.30
2022-10-26T10:21:07.954Z,25.31
2022-10-26T10:23:38.335Z,25.32
2022-10-26T10:26:08.109Z,25.34
2022-10-26T10:28:36.364Z,25.35
2022-10-26T10:31:05.733Z,25.37
2022-10-26T10:33:51.577Z,25.39
2022-10-26T10:36:20.551Z,25.40
2022-10-26T10:38:50.644Z,25.42
2022-10-26T10:41:21.169Z,25.44
2022-10-26T10:43:50.100Z,25.45
2022-10-26T10:46:22.169Z,25.47
2022-10-26T10:48:53.070Z,25.48
2022-10-26T10:51:21.397Z,25.49
2022-10-26T10:53:51.445Z,25.50
2022-10-26T10:56:37.006Z,25.51
2022-10-26T10:59:23.961Z,25.52
2022-10-26T11:01:56.768Z,25.54
2022-10-26T11:04:34.172Z,25.53
2022-10-26T11:07:02.448Z,25.53
2022-10-26T11:09:32.663Z,25.53
2022-10-26T11:12:02.887Z,25.51
2022-10-26T11:14:31.828Z,25.49
2022-10-26T11:17:03.935Z,25.48
2022-10-26T11:19:33.999Z,25.49
2022-10-26T11:22:02.825Z,25.51
2022-10-26T11:24:33.172Z,25.51
2022-10-26T11:27:10.319Z,25.54
2022-10-26T11:29:43.515Z,25.55
2022-10-26T11:32:16.284Z,25.57
2022-10-26T11:34:47.448Z,25.59
2022-10-26T11:37:18.464Z,25.58
2022-10-26T11:39:59.151Z,25.59
2022-10-26T11:42:29.375Z,25.58
2022-10-26T11:44:59.513Z,25.60
2022-10-26T11:47:34.883Z,25.61
2022-10-26T11:50:05.263Z,25.62
2022-10-26T11:52:37.103Z,25.63
2022-10-26T11:55:07.038Z,25.63
2022-10-26T11:57:35.268Z,25.66
2022-10-26T12:00:05.846Z,25.67
2022-10-26T12:02:35.027Z,25.67
2022-10-26T12:05:06.514Z,25.67
2022-10-26T12:07:36.251Z,25.66
2022-10-26T12:10:08.526Z,25.69
2022-10-26T12:12:37.609Z,25.70
2022-10-26T12:15:12.345Z,25.69
2022-10-26T12:17:41.977Z,25.69
2022-10-26T12:20:19.866Z,25.70
2022-10-26T12:22:48.056Z,25.69
2022-10-26T12:25:23.674Z,25.69
2022-10-26T12:27:53.822Z,25.70
2022-10-26T12:30:27.041Z,25.66
2022-10-26T12:32:55.825Z,25.65
2022-10-26T12:35:42.134Z,25.63
2022-10-26T12:38:58.308Z,25.62
2022-10-26T12:41:28.133Z,25.57
2022-10-26T12:43:59.536Z,25.56
2022-10-26T12:46:42.559Z,25.55
2022-10-26T12:49:49.080Z,25.53
2022-10-26T12:52:38.326Z,25.51
2022-10-26T12:55:31.792Z,25.50
2022-10-26T12:58:16.562Z,25.48
2022-10-26T13:00:46.960Z,25.47
2022-10-26T13:03:21.305Z,25.46
2022-10-26T13:06:11.567Z,25.45
2022-10-26T13:08:42.997Z,25.44
2022-10-26T13:11:16.038Z,25.43
2022-10-26T13:13:45.336Z,25.42
2022-10-26T13:16:14.408Z,25.43
2022-10-26T13:18:43.082Z,25.42
2022-10-26T13:21:13.918Z,25.41
2022-10-26T13:23:42.418Z,25.39
2022-10-26T13:26:12.813Z,25.38
2022-10-26T13:28:47.202Z,25.40
2022-10-26T13:31:33.363Z,25.38
2022-10-26T13:34:02.534Z,25.35
2022-10-26T13:36:32.554Z,25.35
2022-10-26T13:39:00.640Z,25.34
2022-10-26T13:41:32.692Z,25.33
2022-10-26T13:44:03.224Z,25.33
2022-10-26T13:46:31.336Z,25.33
2022-10-26T13:49:01.859Z,25.32
2022-10-26T13:51:38.775Z,25.31
2022-10-26T13:54:09.204Z,25.36
2022-10-26T13:56:38.487Z,25.38
2022-10-26T13:59:09.825Z,25.37
2022-10-26T14:01:38.098Z,25.37
2022-10-26T14:04:16.318Z,25.34
2022-10-26T14:06:44.473Z,25.29
2022-10-26T14:09:14.516Z,25.25
2022-10-26T14:11:45.650Z,25.19
2022-10-26T14:14:16.333Z,25.13
2022-10-26T14:16:46.834Z,25.11
2022-10-26T14:19:16.570Z,25.10
2022-10-26T14:21:49.886Z,25.10
2022-10-26T14:24:27.483Z,25.08
2022-10-26T14:27:04.156Z,25.07
2022-10-26T14:32:23.335Z,24.98
2022-10-26T14:34:51.230Z,24.95
2022-10-26T14:37:26.244Z,24.95
2022-10-26T14:39:54.132Z,24.92
2022-10-26T14:42:27.942Z,24.90
2022-10-26T14:44:57.440Z,24.93
2022-10-26T14:47:25.952Z,24.93
2022-10-26T14:49:54.471Z,24.92
2022-10-26T14:52:26.539Z,24.96
2022-10-26T14:55:00.886Z,24.90
2022-10-26T14:57:35.608Z,24.84
2022-10-26T15:00:16.170Z,24.72
2022-10-26T15:02:44.242Z,24.60
2022-10-26T15:05:24.342Z,24.57
2022-10-26T15:07:52.903Z,24.52
2022-10-26T15:10:48.728Z,24.43
2022-10-26T15:13:21.801Z,24.42
2022-10-26T15:15:52.698Z,24.45
2022-10-26T15:18:23.763Z,24.47
2022-10-26T15:20:52.443Z,24.49
2022-10-26T15:23:20.596Z,24.50
2022-10-26T15:25:53.439Z,24.51
2022-10-26T15:28:25.875Z,24.49
2022-10-26T15:31:03.371Z,24.49
2022-10-26T15:33:31.292Z,24.48
2022-10-26T15:36:16.201Z,24.48
2022-10-26T15:38:44.663Z,24.47
2022-10-26T15:41:16.528Z,24.45
2022-10-26T15:43:44.586Z,24.45
2022-10-26T15:46:14.575Z,24.45
2022-10-26T15:48:42.560Z,24.43
2022-10-26T15:51:12.544Z,24.42
2022-10-26T15:53:40.576Z,24.41
2022-10-26T15:56:14.148Z,24.41
2022-10-26T15:58:42.843Z,24.40
2022-10-26T16:01:14.911Z,24.40
2022-10-26T16:03:42.990Z,24.39
2022-10-26T16:06:14.421Z,24.37
2022-10-26T16:08:42.516Z,24.38
2022-10-26T16:11:11.152Z,24.39
2022-10-26T16:13:39.195Z,24.38
2022-10-26T16:16:11.684Z,24.38
2022-10-26T16:18:41.111Z,24.38
2022-10-26T16:21:13.911Z,24.36
2022-10-26T16:23:42.088Z,24.35
2022-10-26T16:26:10.751Z,24.35
2022-10-26T16:28:38.968Z,24.37
2022-10-26T16:31:07.976Z,24.36
2022-10-26T16:33:36.789Z,24.35
2022-10-26T16:36:06.693Z,24.35
2022-10-26T16:38:35.408Z,24.35
2022-10-26T16:41:03.638Z,24.35
2022-10-26T16:43:33.295Z,24.34
2022-10-26T16:46:02.540Z,24.34
2022-10-26T16:48:31.480Z,24.34
2022-10-26T16:50:59.463Z,24.34
2022-10-26T16:53:31.458Z,24.35
2022-10-26T16:56:03.342Z,24.33
2022-10-26T16:58:34.385Z,24.33
2022-10-26T17:01:08.775Z,24.34
2022-10-26T17:03:37.870Z,24.34
2022-10-26T17:06:07.462Z,24.34
2022-10-26T17:08:38.491Z,24.33
2022-10-26T17:11:08.404Z,24.32
2022-10-26T17:13:39.094Z,24.33
2022-10-26T17:16:10.571Z,24.33
2022-10-26T17:18:41.988Z,24.31
2022-10-26T17:21:10.160Z,24.32
2022-10-26T17:23:41.438Z,24.31
2022-10-26T17:26:10.886Z,24.32
2022-10-26T17:28:39.622Z,24.31
2022-10-26T17:31:08.637Z,24.31
2022-10-26T17:33:37.632Z,24.31
2022-10-26T17:36:10.063Z,24.31
2022-10-26T17:38:41.350Z,24.30
2022-10-26T17:41:10.624Z,24.30
2022-10-26T17:43:40.202Z,24.29
2022-10-26T17:46:08.824Z,24.29
2022-10-26T17:48:37.667Z,24.29
2022-10-26T17:51:12.915Z,24.30
2022-10-26T17:53:42.983Z,24.31
2022-10-26T17:56:29.559Z,24.32
2022-10-26T17:58:59.272Z,24.33
2022-10-26T18:01:27.738Z,24.33
2022-10-26T18:03:56.481Z,24.34
2022-10-26T18:06:24.468Z,24.33
2022-10-26T18:08:54.498Z,24.32
2022-10-26T18:11:26.929Z,24.32
2022-10-26T18:13:56.027Z,24.32
2022-10-26T18:16:24.304Z,24.31
2022-10-26T18:19:01.474Z,24.29
2022-10-26T18:21:30.346Z,24.29
2022-10-26T18:24:00.458Z,24.29
2022-10-26T18:26:29.775Z,24.29
2022-10-26T18:28:59.108Z,24.29
2022-10-26T18:31:27.572Z,24.28
2022-10-26T18:33:57.070Z,24.27
2022-10-26T18:36:25.105Z,24.26
2022-10-26T18:38:53.904Z,24.26
2022-10-26T18:41:23.677Z,24.26
2022-10-26T18:43:54.316Z,24.24
2022-10-26T18:46:24.242Z,24.24
2022-10-26T18:48:54.599Z,24.24
2022-10-26T18:51:23.599Z,24.25
2022-10-26T18:53:52.268Z,24.24
2022-10-26T18:56:21.093Z,24.23
2022-10-26T18:58:52.465Z,24.20
2022-10-26T19:01:23.877Z,24.20
2022-10-26T19:03:54.896Z,24.20
2022-10-26T19:06:26.029Z,24.20
2022-10-26T19:08:54.141Z,24.20
2022-10-26T19:11:23.716Z,24.21
2022-10-26T19:13:54.054Z,24.20
2022-10-26T19:19:12.648Z,24.17
2022-10-26T19:21:41.008Z,24.17
2022-10-26T19:24:14.247Z,24.16
2022-10-26T19:26:43.858Z,24.16
2022-10-26T19:29:16.806Z,24.16
2022-10-26T19:31:48.136Z,24.17
2022-10-26T19:34:17.153Z,24.19
2022-10-26T19:36:46.356Z,24.18
2022-10-26T19:39:14.971Z,24.19
2022-10-26T19:41:44.144Z,24.18
2022-10-26T19:44:14.574Z,24.16
2022-10-26T19:46:49.894Z,24.14
2022-10-26T19:49:19.026Z,24.12
2022-10-26T19:51:48.710Z,24.13
2022-10-26T19:54:16.655Z,24.12
2022-10-26T19:56:56.222Z,24.12
2022-10-26T19:59:29.604Z,24.10
2022-10-26T20:02:04.718Z,24.08
2022-10-26T20:04:38.946Z,24.09
2022-10-26T20:07:11.277Z,24.09
2022-10-26T20:09:39.296Z,24.10
2022-10-26T20:12:16.904Z,24.10
2022-10-26T20:14:56.664Z,24.11
2022-10-26T20:17:31.511Z,24.11
2022-10-26T20:20:10.147Z,24.10
2022-10-26T20:22:41.729Z,24.10
2022-10-26T20:25:14.677Z,24.11
2022-10-26T20:27:51.317Z,24.10
2022-10-26T20:30:26.053Z,24.10
2022-10-26T20:32:55.402Z,24.10
2022-10-26T20:35:29.748Z,24.09
2022-10-26T20:38:01.705Z,24.09
2022-10-26T20:40:39.665Z,24.08
2022-10-26T20:43:13.042Z,24.07
2022-10-26T20:45:46.300Z,24.08
2022-10-26T20:48:15.994Z,24.07
2022-10-26T20:50:48.568Z,24.06
2022-10-26T20:53:20.292Z,24.06
2022-10-26T20:55:53.735Z,24.04
2022-10-26T20:58:30.537Z,24.02
2022-10-26T21:01:03.747Z,24.03
2022-10-26T21:03:32.912Z,24.03
2022-10-26T21:06:02.664Z,24.03
2022-10-26T21:08:31.819Z,24.03
2022-10-26T21:11:02.044Z,24.02
2022-10-26T21:13:31.140Z,24.03
2022-10-26T21:16:04.744Z,24.02
2022-10-26T21:18:35.077Z,24.01
2022-10-26T21:21:05.077Z,24.02
2022-10-26T21:23:38.181Z,24.01
2022-10-26T21:26:08.413Z,24.01
2022-10-26T21:28:38.223Z,24.01
2022-10-26T21:31:13.343Z,24.01
2022-10-26T21:33:42.459Z,24.00
2022-10-26T21:36:14.304Z,23.99
2022-10-26T21:38:44.296Z,24.01
2022-10-26T21:41:14.999Z,23.99
2022-10-26T21:43:48.104Z,23.98
2022-10-26T21:46:20.303Z,23.98
2022-10-26T21:48:49.587Z,23.97
2022-10-26T21:51:19.067Z,23.96
2022-10-26T21:53:48.741Z,23.96
2022-10-26T21:56:18.538Z,23.95
2022-10-26T21:58:48.950Z,23.95
2022-10-26T22:01:26.979Z,23.95
2022-10-26T22:03:56.567Z,23.94
2022-10-26T22:06:26.193Z,23.93
2022-10-26T22:08:55.779Z,23.92
2022-10-26T22:11:25.405Z,23.91
2022-10-26T22:13:54.611Z,23.91
2022-10-26T22:16:27.531Z,23.90
2022-10-26T22:18:58.220Z,23.91
2022-10-26T22:21:28.182Z,23.90
2022-10-26T22:23:56.149Z,23.89
2022-10-26T22:26:27.761Z,23.90
2022-10-26T22:28:57.471Z,23.89
2022-10-26T22:31:28.961Z,23.89
2022-10-26T22:34:02.024Z,23.88
2022-10-26T22:36:32.975Z,23.88
2022-10-26T22:39:01.981Z,23.87
2022-10-26T22:41:35.721Z,23.87
2022-10-26T22:44:06.814Z,23.88
2022-10-26T22:46:37.689Z,23.85
2022-10-26T22:49:07.309Z,23.87
2022-10-26T22:51:38.683Z,23.85
2022-10-26T22:54:07.939Z,23.84
2022-10-26T22:56:37.324Z,23.83
2022-10-26T22:59:06.383Z,23.83
2022-10-26T23:01:42.096Z,23.82
2022-10-26T23:04:11.791Z,23.80
2022-10-26T23:06:40.978Z,23.80
2022-10-26T23:09:10.295Z,23.80
2022-10-26T23:11:38.313Z,23.79
2022-10-26T23:14:06.359Z,23.78
2022-10-26T23:16:34.856Z,23.78
2022-10-26T23:19:04.273Z,23.78
2022-10-26T23:21:32.258Z,23.78
2022-10-26T23:24:00.245Z,23.77
2022-10-26T23:26:28.194Z,23.77
2022-10-26T23:28:56.197Z,23.77
2022-10-26T23:31:25.933Z,23.76
2022-10-26T23:33:54.345Z,23.75
2022-10-26T23:36:23.952Z,23.74
2022-10-26T23:38:51.931Z,23.74
2022-10-26T23:41:19.846Z,23.74
2022-10-26T23:43:47.985Z,23.73
2022-10-26T23:46:16.103Z,23.70
2022-10-26T23:48:44.157Z,23.70
2022-10-26T23:51:12.064Z,23.69
2022-10-26T23:53:41.394Z,23.67
2022-10-26T23:56:09.346Z,23.68
2022-10-26T23:58:37.334Z,23.66
